Latest Weather Observations for Lameroo AWS

IDS60801

Issued at 4:32 pm CST Monday 27 April 2015 (issued every 30 minutes, with the page automatically refreshed every 10 minutes)

About weather observations | Map of weather stations | Latest weather observations for SA | Other Formats
Station Details ID: 025562 Name: AUSTIN PLAINS Lat: -35.38 Lon: 140.54 Height: 110.08 m
Data from the previous 72 hours. | See also: Recent months at Lameroo AWS
Date/Time
CST
Temp
°C
App
Temp
°C
Dew
Point
Rel
Hum
%
Delta-T
°C
Wind Press
QNH
hPa
Press
MSL
hPa
Rain
since 9 am
mm
Dir
 
Spd
km/h
Gust
km/h
Spd
kts
Gust
kts
27/04:30pm 14.2 10.1 7.9 66 3.1 SW 19 26 10 14 1026.1 1026.0 0.0
27/04:00pm 14.8 10.1 7.6 62 3.6 SSW 22 26 12 14 1026.0 1025.8 0.0
27/03:30pm 14.9 9.9 8.2 64 3.4 SW 24 33 13 18 1025.9 1025.7 0.0
27/03:00pm 15.1 10.1 8.1 63 3.5 SSW 24 32 13 17 1025.8 1025.6 0.0
27/02:30pm 15.1 11.2 8.8 66 3.2 WSW 19 24 10 13 1025.7 1025.5 0.0
27/02:00pm 14.3 9.2 9.1 71 2.7 SW 26 35 14 19 1025.7 1025.5 0.0
27/01:30pm 14.9 12.8 8.2 64 3.4 S 9 19 5 10 1025.8 1025.6 0.0
27/01:00pm 14.3 9.0 8.3 67 3.0 SSW 26 32 14 17 1026.0 1025.8 0.0
27/12:30pm 15.1 10.8 7.9 62 3.6 SSW 20 26 11 14 1026.1 1026.0 0.0
27/12:00pm 14.7 10.3 7.3 61 3.6 SSW 20 30 11 16 1026.5 1026.4 0.0
27/11:30am 14.8 10.6 7.4 61 3.6 S 19 26 10 14 1026.7 1026.6 0.0
27/11:00am 14.5 11.1 9.3 71 2.7 SSW 17 30 9 16 1027.0 1026.9 0.0
27/10:30am 13.7 11.2 9.6 76 2.1 S 13 20 7 11 1027.1 1027.0 0.0
27/10:00am 13.1 11.3 10.8 86 1.2 SW 11 15 6 8 1027.1 1027.0 0.0
27/09:30am 12.0 10.5 10.6 91 0.7 SSW 9 13 5 7 1027.1 1027.0 0.0
27/09:00am 11.4 9.0 11.4 100 0.0 SSW 15 19 8 10 1027.1 1027.0 0.2
27/08:30am 11.0 9.7 9.9 93 0.6 W 7 9 4 5 1026.8 1026.7 0.0
27/08:00am 10.5 9.4 10.5 100 0.0 WSW 7 9 4 5 1026.6 1026.5 0.0
27/07:30am 10.2 9.2 10.2 100 0.0 SW 6 7 3 4 1026.5 1026.4 0.0
27/07:00am 9.9 8.6 9.9 100 0.0 WSW 7 9 4 5 1026.1 1026.0 0.0
27/06:30am 9.9 8.4 9.3 96 0.3 SSW 7 9 4 5 1026.1 1026.0 0.0
27/06:00am 9.8 8.3 8.6 92 0.6 SW 6 6 3 3 1025.8 1025.6 0.0
27/05:30am 9.9 8.2 8.5 91 0.7 SW 7 9 4 5 1025.6 1025.4 0.0
27/05:00am 10.3 7.8 8.1 86 1.1 SW 11 15 6 8 1025.8 1025.6 0.0
27/04:30am 10.6 7.6 7.8 83 1.4 SSW 13 17 7 9 1025.4 1025.2 0.0
27/04:00am 10.8 8.6 8.0 83 1.4 WSW 9 13 5 7 1025.1 1024.9 0.0
27/03:30am 10.7 8.2 8.1 84 1.3 W 11 13 6 7 1025.1 1024.9 0.0
27/03:00am 10.5 7.9 7.9 84 1.3 W 11 13 6 7 1025.2 1025.0 0.0
27/02:30am 10.6 8.4 7.7 82 1.4 W 9 11 5 6 1025.3 1025.1 0.0
27/02:00am 10.7 8.4 7.6 81 1.5 WSW 9 11 5 6 1025.4 1025.2 0.0
27/01:30am 10.9 8.4 8.0 82 1.4 W 11 15 6 8 1025.4 1025.2 0.0
27/01:00am 11.2 8.8 7.1 76 2.0 SW 9 11 5 6 1025.4 1025.2 0.0
27/12:30am 11.1 9.5 7.8 80 1.6 SW 6 9 3 5 1025.5 1025.3 0.0
27/12:00am 11.2 9.2 7.3 77 1.9 SSW 7 9 4 5 1025.5 1025.3 0.0
 
Date/Time
CST
Temp
°C
App
Temp
°C
Dew
Point
Rel
Hum
%
Delta-T
°C
Wind Press
QNH
hPa
Press
MSL
hPa
Rain
since 9 am
mm
Dir
 
Spd
km/h
Gust
km/h
Spd
kts
Gust
kts
26/11:30pm 11.3 8.7 7.8 79 1.7 SW 11 13 6 7 1025.6 1025.4 0.0
26/11:00pm 11.4 9.1 7.3 76 2.0 SW 9 13 5 7 1025.6 1025.4 0.0
26/10:30pm 11.4 9.0 7.1 75 2.1 SW 9 13 5 7 1025.7 1025.5 0.0
26/10:00pm 11.5 9.0 6.6 72 2.3 SW 9 11 5 6 1025.8 1025.6 0.0
26/09:30pm 11.6 9.4 6.3 70 2.5 SW 7 9 4 5 1025.7 1025.5 0.0
26/09:00pm 11.9 9.2 5.5 65 3.0 SSW 9 11 5 6 1025.6 1025.4 0.0
26/08:30pm 12.2 8.7 5.4 63 3.2 SSW 13 20 7 11 1025.4 1025.2 0.0
26/08:00pm 12.5 7.8 5.2 61 3.4 SW 19 30 10 16 1025.3 1025.1 0.0
26/07:30pm 12.2 9.7 8.3 77 1.9 SW 11 13 6 7 1025.0 1024.8 0.0
26/07:00pm 12.4 9.0 7.5 72 2.4 SSW 15 20 8 11 1024.5 1024.3 0.0
26/06:30pm 12.6 9.6 7.5 71 2.5 SW 13 17 7 9 1024.4 1024.2 0.0
26/06:00pm 12.9 9.2 6.5 65 3.1 SSW 15 20 8 11 1024.2 1024.0 0.0
26/05:30pm 13.2 8.4 5.6 60 3.6 SSW 20 28 11 15 1023.8 1023.6 0.0
26/05:00pm 13.4 8.1 4.8 56 4.0 SSW 22 32 12 17 1023.7 1023.5 0.0
26/04:30pm 13.8 8.2 5.4 57 3.9 SSW 24 30 13 16 1023.4 1023.2 0.0
26/04:00pm 14.2 8.5 6.8 61 3.6 SSW 26 32 14 17 1023.3 1023.1 0.0
26/03:30pm 14.4 8.6 6.3 58 3.9 SSW 26 33 14 18 1023.0 1022.9 0.0
26/03:00pm 15.0 9.7 6.6 57 4.1 SSW 24 33 13 18 1022.9 1022.8 0.0
26/02:30pm 14.9 9.0 7.5 61 3.7 SSW 28 37 15 20 1022.8 1022.7 0.0
26/02:00pm 15.0 8.7 7.3 60 3.8 SW 30 41 16 22 1022.8 1022.7 0.0
26/01:30pm 15.1 9.7 8.1 63 3.5 SSW 26 35 14 19 1022.6 1022.5 0.0
26/01:00pm 14.3 9.2 9.3 72 2.6 SSW 26 33 14 18 1022.9 1022.8 0.0
26/12:30pm 14.6 9.4 9.0 69 2.9 SSW 26 39 14 21 1022.9 1022.8 0.0
26/12:00pm 14.9 10.8 8.8 67 3.1 SSW 20 28 11 15 1023.0 1022.9 0.0
26/11:30am 13.2 8.8 9.1 76 2.1 SSW 22 35 12 19 1023.5 1023.3 0.0
26/11:00am 13.5 8.6 8.4 71 2.6 SSW 24 32 13 17 1023.6 1023.4 0.0
26/10:30am 14.2 9.7 8.4 68 2.9 SSW 22 33 12 18 1023.5 1023.3 0.0
26/10:00am 13.9 9.9 8.9 72 2.5 SSW 20 30 11 16 1023.6 1023.4 0.0
26/09:30am 12.7 8.9 9.0 78 1.9 SSW 19 26 10 14 1023.6 1023.4 0.0
26/09:00am 11.9 8.4 8.7 81 1.6 SSW 17 24 9 13 1023.4 1023.2 1.6
26/08:30am 10.5 7.4 8.8 89 0.8 SSW 15 20 8 11 1023.4 1023.2 1.6
26/08:00am 9.9 6.6 9.4 97 0.3 SW 17 19 9 10 1022.9 1022.8 1.6
26/07:30am 8.6 5.8 8.6 100 0.0 SW 13 17 7 9 1022.4 1022.3 1.6
26/07:00am 7.4 4.7 7.4 100 0.0 SW 11 13 6 7 1022.0 1021.9 1.4
26/06:30am 7.2 4.5 7.2 100 0.0 SW 11 13 6 7 1021.7 1021.6 1.4
26/06:00am 7.4 4.3 7.4 100 0.0 SW 13 15 7 8 1021.4 1021.3 1.4
26/05:30am 7.5 4.8 7.5 100 0.0 WSW 11 13 6 7 1021.1 1021.0 1.4
26/05:00am 7.3 4.6 7.3 100 0.0 SW 11 13 6 7 1021.0 1020.9 1.4
26/04:30am 7.7 5.1 7.6 99 0.0 SW 11 15 6 8 1020.8 1020.7 1.4
26/04:00am 7.6 4.3 6.5 93 0.5 SW 13 17 7 9 1020.6 1020.5 1.4
26/03:30am 7.7 4.8 6.3 91 0.6 SW 11 13 6 7 1020.2 1020.1 1.4
26/03:00am 8.3 5.8 6.6 89 0.8 SSW 9 11 5 6 1019.9 1019.8 1.4
26/02:30am 9.2 6.1 7.3 88 0.9 SSW 13 15 7 8 1019.9 1019.8 1.4
26/02:00am 9.8 7.2 7.9 88 0.9 SSW 11 15 6 8 1019.9 1019.8 1.4
26/01:30am 10.1 6.5 8.2 88 0.9 SSW 17 22 9 12 1019.9 1019.8 1.4
26/01:00am 9.9 6.4 8.7 92 0.6 SSW 17 22 9 12 1019.8 1019.7 1.4
26/12:30am 9.8 5.9 8.7 93 0.5 SSW 19 22 10 12 1019.8 1019.7 1.4
26/12:00am 10.0 5.8 8.4 90 0.8 SSW 20 26 11 14 1019.5 1019.4 1.4
 
Date/Time
CST
Temp
°C
App
Temp
°C
Dew
Point
Rel
Hum
%
Delta-T
°C
Wind Press
QNH
hPa
Press
MSL
hPa
Rain
since 9 am
mm
Dir
 
Spd
km/h
Gust
km/h
Spd
kts
Gust
kts
25/11:30pm 10.7 5.9 8.8 88 0.9 S 24 33 13 18 1019.1 1019.0 1.4
25/11:00pm 10.6 6.8 9.0 90 0.8 SSW 19 24 10 13 1018.9 1018.8 1.4
25/10:30pm 10.8 6.4 9.1 89 0.8 SSW 22 28 12 15 1018.8 1018.7 1.4
25/10:00pm 11.3 6.6 9.4 88 1.0 S 24 33 13 18 1018.7 1018.6 1.4
25/09:30pm 11.2 6.6 9.5 89 0.9 SSW 24 32 13 17 1018.3 1018.1 1.4
25/09:00pm 11.7 6.8 9.8 88 1.0 SSW 26 33 14 18 1018.0 1017.8 1.4
25/08:30pm 11.8 6.5 10.0 89 0.9 SSW 28 35 15 19 1017.5 1017.3 1.4
25/08:00pm 12.7 7.7 10.8 88 1.0 SSW 28 39 15 21 1017.2 1017.0 1.4
25/07:30pm 12.6 8.3 10.8 89 0.9 SSW 24 32 13 17 1016.6 1016.4 1.4
25/07:00pm 13.0 9.6 11.1 88 1.0 SSW 20 28 11 15 1016.0 1015.8 1.4
25/06:30pm 13.0 9.1 10.7 86 1.2 SSW 22 28 12 15 1015.4 1015.2 1.4
25/06:00pm 13.4 9.5 10.9 85 1.3 SSW 22 28 12 15 1014.7 1014.5 1.4
25/05:30pm 15.1 11.6 10.1 72 2.6 SSW 19 28 10 15 1014.0 1013.8 1.4
25/05:00pm 15.3 11.5 9.7 69 2.9 SSW 20 26 11 14 1013.3 1013.2 1.4
25/04:30pm 16.4 12.4 8.9 61 3.9 S 20 30 11 16 1012.8 1012.7 1.4
25/04:00pm 16.4 12.6 9.8 65 3.5 SSW 20 30 11 16 1012.5 1012.4 1.4
25/03:30pm 15.9 13.0 10.9 72 2.7 SSW 17 26 9 14 1012.5 1012.4 1.4
25/03:00pm 14.9 12.9 11.5 80 1.8 SSW 13 19 7 10 1012.2 1012.1 1.4
25/02:30pm 13.2 9.4 11.1 87 1.1 SW 22 30 12 16 1012.2 1012.1 1.2
25/02:00pm 13.7 11.1 11.9 89 1.0 WSW 17 24 9 13 1012.1 1012.0 0.2
25/01:30pm 14.5 11.0 10.9 79 1.9 SW 20 28 11 15 1011.7 1011.6 0.0
25/01:00pm 12.9 4.9 9.0 77 2.0 WSW 41 52 22 28 1011.6 1011.5 0.0
25/12:50pm 14.3 8.6 8.5 68 2.9 SW 28 52 15 28 1011.5 1011.4 0.0
25/12:30pm 15.9 11.7 7.4 57 4.3 SW 19 30 10 16 1011.5 1011.4 0.0
25/12:00pm 15.4 9.9 7.4 59 4.0 SW 26 35 14 19 1011.8 1011.7 0.0
25/11:30am 15.3 10.9 8.8 65 3.3 SW 22 33 12 18 1011.8 1011.7 0.0
25/11:00am 14.8 10.4 7.6 62 3.6 SSW 20 32 11 17 1011.6 1011.5 0.0
25/10:30am 13.9 9.1 7.2 64 3.3 S 22 28 12 15 1011.2 1011.1 0.0
25/10:00am 13.3 9.2 8.6 73 2.4 S 20 26 11 14 1011.1 1011.0 0.0
25/09:30am 12.2 7.6 8.3 77 1.9 S 22 28 12 15 1010.8 1010.7 0.0
25/09:00am 11.0 7.1 8.6 85 1.2 SSW 19 24 10 13 1010.7 1010.6 14.6
25/08:30am 9.7 5.1 8.0 89 0.8 SSW 22 28 12 15 1010.4 1010.2 14.4
25/08:00am 8.9 4.8 8.0 94 0.4 SSW 19 26 10 14 1010.0 1009.8 14.4
25/07:30am 8.7 4.4 7.8 94 0.4 SSW 20 28 11 15 1009.4 1009.2 14.4
25/07:00am 8.3 4.2 7.9 97 0.2 S 19 24 10 13 1008.7 1008.5 14.4
25/06:30am 8.3 5.4 8.3 100 0.0 SSE 13 15 7 8 1007.8 1007.6 14.4
25/06:00am 8.2 7.0 8.2 100 0.0 SSE 4 6 2 3 1006.8 1006.6 14.4
25/05:30am 8.3 5.4 8.3 100 0.0 SSE 13 17 7 9 1006.7 1006.5 14.2
25/05:00am 8.4 5.6 8.4 100 0.0 SE 13 15 7 8 1006.2 1006.0 13.2
25/04:30am 8.3 5.1 8.3 100 0.0 ESE 15 17 8 9 1005.9 1005.7 11.6
25/04:00am 8.4 4.2 8.4 100 0.0 ESE 20 24 11 13 1005.6 1005.4 9.2
25/03:30am 8.7 5.2 8.7 100 0.0 ESE 17 20 9 11 1005.3 1005.1 8.4
25/03:00am 8.5 5.7 8.5 100 0.0 E 13 17 7 9 1005.3 1005.1 7.8
25/02:30am 8.5 6.2 7.3 92 0.6 NE 9 15 5 8 1005.3 1005.1 5.8
25/02:00am 8.5 5.3 7.0 90 0.7 NE 13 17 7 9 1005.2 1005.0 3.6
25/01:30am 8.6 4.7 6.9 89 0.8 NNE 17 20 9 11 1005.3 1005.1 2.2
25/01:00am 8.9 5.6 6.5 85 1.1 NNE 13 17 7 9 1005.4 1005.2 1.2
25/12:30am 8.5 5.2 6.5 87 0.9 ENE 13 15 7 8 1005.2 1005.0 0.6
25/12:00am 8.1 4.8 6.2 88 0.9 NE 13 15 7 8 1005.5 1005.3 0.6
 
Date/Time
CST
Temp
°C
App
Temp
°C
Dew
Point
Rel
Hum
%
Delta-T
°C
Wind Press
QNH
hPa
Press
MSL
hPa
Rain
since 9 am
mm
Dir
 
Spd
km/h
Gust
km/h
Spd
kts
Gust
kts
24/11:30pm 7.8 4.4 5.9 88 0.9 NE 13 15 7 8 1005.7 1005.5 0.6
24/11:00pm 7.8 4.1 6.1 89 0.8 NNE 15 17 8 9 1006.2 1006.0 0.6
24/10:30pm 6.6 3.0 4.8 88 0.8 NE 13 15 7 8 1006.2 1006.0 0.6
24/10:00pm 7.3 4.2 5.4 88 0.8 NNE 11 13 6 7 1006.8 1006.6 0.6
24/09:30pm 7.5 4.0 5.3 86 1.0 N 13 15 7 8 1007.1 1006.9 0.6
24/09:00pm 8.1 5.4 5.7 85 1.1 N 9 11 5 6 1007.1 1006.9 0.6
24/08:30pm 8.3 5.7 5.9 85 1.1 NNW 9 9 5 5 1007.3 1007.1 0.6
24/08:00pm 8.6 5.6 5.9 83 1.2 NW 11 19 6 10 1007.4 1007.2 0.6
24/07:30pm 9.3 7.3 6.2 81 1.4 NW 6 7 3 4 1007.3 1007.1 0.6
24/07:00pm 10.0 7.9 6.7 80 1.6 W 7 9 4 5 1007.2 1007.0 0.6
24/06:30pm 10.2 7.4 7.1 81 1.5 W 11 13 6 7 1007.1 1006.9 0.6
24/06:00pm 10.8 8.5 7.5 80 1.6 W 9 11 5 6 1006.9 1006.7 0.6
24/05:30pm 12.3 10.2 8.4 77 1.9 WSW 9 13 5 7 1006.6 1006.4 0.6
24/05:00pm 13.5 10.1 9.0 74 2.3 WNW 17 24 9 13 1006.3 1006.1 0.6

Other Formats:

Comma delimited format used in spreadsheet applications
http://www.bom.gov.au/fwo/IDS60801/IDS60801.94690.axf

JavaScript Object Notation format (JSON) in row-major order
http://www.bom.gov.au/fwo/IDS60801/IDS60801.94690.json